Portada
METAR-TAF:

METAR-TAF

Aeropuertos :

Aeropuerto Internacional de Tozeur-Nefta

Tozeur, Túnez

latitud: 33-55N, longitud: 008-06E, altitud: 87 m

Observación

El informe se hizo hace 25 horas y 11 minutos, a las 17:00 UTC
Viento 10 kt del este-sureste
Temperatura 40°C
Humedad 19%
Presión 1012 hPa
Visibilidad 10 km o más
sin nubes por debajo de 1500 m y sin presencia de cumulonimbus.

METAR: DTTZ 111700Z 11010KT CAVOK 40/12 Q1012

Hora: 19:11 (18:11 UTC)

Pronóstico

El informe se hizo hace 1 hora y 11 minutos, a las 17:00 UTC
Pronóstico válido del 12 a las 18 UTC al 13 a las 18 UTC
Viento 7 kt del oeste
Visibilidad 10 km o más
sin nubes por debajo de 1500 m y sin presencia de cumulonimbus.
Evolucionando progresivamente
del 12 a las 22 UTC al 12 a las 24 UTC
Viento 12 kt del este
Evolucionando progresivamente
del 13 a las 10 UTC al 13 a las 12 UTC
Viento 5 kt del sur-sureste

TAF: DTTZ 121700Z 1218/1318 26007KT CAVOK BECMG 1222/1224 10012KT BECMG 1310/1312 16005KT

Observaciones y pronósticos meteorológicos de más de 4000 aeropuertos (mensajes METAR y TAF).

Los puntos amarillos y rojos representan las estaciones disponibles.

Ponga el ratón en el punto deseado para ver el nombre de la estación.

Haga clic para ver las observaciones y los pronósticos meteorológicos.

Para cambiar el mapa : haga clic en los botones verdes con una cruz de color negro para hacer un zoom, en el botón verde con un guión para alejar o en las flechas verdes para mapas adyacentes.


METAR-TAF: